Latest Coastal Weather Observations for Cairns

IDQ60701

Issued at 7:31 am EST Sunday 21 December 2014 (issued every 10 minutes, with the page automatically refreshed every 10 minutes)

About coastal observations | Map of coastal stations | Coastal observations for QLD | Marine services | Other Formats
Station Details ID: 031011 Name: CAIRNS AERO Lat: -16.87 Lon: 145.75 Height: 2.22 m
Data from the previous 72 hours. | See also: Recent months at Cairns
Date/Time
EST
Temp

°C
Wind Pressure Rain
since 9am
mm
Weather Cloud Vis
km
Sea
Height
m
Swell
Dir
 
Speed
knots
Gust
knots
hPa Trend Height
m
Period
s
Dir
21/07:00am 28.1 S 5 8 1011.8 - 0.0 - Mostly clear 10 - - - -
21/06:30am 26.3 SE 5 7 1011.4 - 0.0 - Mostly clear 10 - - - -
21/06:00am 25.3 CALM 0 0 1011.0 - 0.0 - Cloudy 10 - - - -
21/05:30am 25.2 SW 1 3 1010.8 - 0.0 - Partly cloudy 10 - - - -
21/05:00am 25.2 SE 6 7 1010.2 - 0.0 - Mostly clear 10 - - - -
21/04:30am 25.4 ESE 7 8 1010.1 - 0.0 - Mostly clear 10 - - - -
21/04:00am 25.6 SSE 5 8 1010.0 - 0.0 - Mostly clear 10 - - - -
21/03:30am 25.6 SE 5 6 1010.0 - 0.0 - Mostly clear 10 - - - -
21/03:00am 25.6 SSE 5 7 1010.0 - 0.0 - Cloudy 10 - - - -
21/02:30am 26.4 SSE 7 9 1010.3 - 0.0 - Mostly clear 10 - - - -
21/02:00am 26.4 S 6 9 1010.5 - 0.0 - Mostly clear 10 - - - -
21/01:30am 26.6 S 6 8 1010.6 - 0.0 - Mostly clear 10 - - - -
21/01:00am 26.3 S 5 7 1010.8 - 0.0 - Mostly clear 10 - - - -
21/12:30am 26.5 S 7 10 1011.1 - 0.0 - Mostly clear 10 - - - -
 
Date/Time
EST
Temp

°C
Wind Pressure Rain
since 9am
mm
Weather Cloud Vis
km
Sea
Height
m
Swell
Dir
 
Speed
knots
Gust
knots
hPa Trend Height
m
Period
s
Dir
20/11:30pm 26.9 S 5 6 1011.5 - 0.0 - Mostly clear 10 - - - -
20/11:00pm 26.9 S 5 7 1011.3 - 0.0 - Mostly clear 10 - - - -
20/10:30pm 26.6 S 6 8 1011.2 - 0.0 - Mostly clear 10 - - - -
20/10:00pm 26.3 S 5 7 1011.3 - 0.0 - Mostly clear 10 - - - -
20/09:30pm 26.8 S 2 6 1011.1 - 0.0 - Mostly clear 10 - - - -
20/09:00pm 26.9 CALM 0 0 1010.8 - 0.0 - Mostly clear 10 - - - -
20/08:30pm 28.2 E 7 9 1010.8 - 0.0 - Mostly clear 10 - - - -
20/08:00pm 28.3 E 7 11 1010.4 - 0.0 - Mostly clear 10 - - - -
20/07:30pm 28.6 E 8 10 1010.1 - 0.0 - Mostly clear 10 - - - -
20/07:00pm 28.7 E 8 12 1009.8 - 0.0 - Mostly clear 10 - - - -
20/06:30pm 29.0 E 9 12 1009.7 - 0.0 - Mostly clear 10 - - - -
20/06:00pm 29.3 E 10 12 1009.2 - 0.0 - Cloudy 10 - - - -
20/05:30pm 29.6 E 11 15 1009.0 - 0.0 - Mostly clear 10 - - - -
20/05:00pm 29.9 E 11 16 1008.6 - 0.0 - Mostly clear 10 - - - -
20/04:30pm 30.5 ENE 13 18 1008.2 - 0.0 - Mostly clear 10 - - - -
20/04:00pm 31.0 ENE 12 18 1008.3 - 0.0 - Mostly clear 10 - - - -
20/03:30pm 32.5 ENE 14 18 1008.1 - 0.0 - Mostly clear 10 - - - -
20/03:00pm 31.8 ENE 12 17 1008.4 F 0.0 Fine Partly cloudy 30 - - - -
20/02:30pm 31.4 NE 13 17 1008.9 - 0.0 - Mostly clear 10 - - - -
20/02:00pm 32.1 NE 12 15 1009.1 - 0.0 - Mostly clear 10 - - - -
20/01:30pm 30.9 NE 11 15 1009.6 - 0.0 - Mostly clear 10 - - - -
20/01:00pm 30.5 NE 10 14 1010.2 - 0.0 - Mostly clear 10 - - - -
20/12:30pm 30.8 NE 10 14 1010.8 - 0.0 - Partly cloudy 10 - - - -
20/12:00pm 30.4 NE 8 12 1011.0 - 0.0 - Cloudy 10 - - - -
20/11:30am 30.1 NE 8 12 1011.3 - 0.0 - Partly cloudy 10 - - - -
20/11:00am 30.3 NE 7 10 1011.5 - 0.0 - Partly cloudy 10 - - - -
20/10:30am 29.1 ENE 5 8 1011.7 - 0.0 - Mostly clear 10 - - - -
20/10:00am 29.0 NNE 5 7 1011.7 - 0.0 - Mostly clear 10 - - - -
20/09:30am 29.1 SSW 2 5 1011.6 - 0.0 - Mostly clear 10 - - - -
20/09:00am 28.7 S 5 6 1011.7 S 0.0 Fine Mostly cloudy 30 - - - -
20/08:30am 28.5 SE 5 7 1011.8 - 0.0 - Mostly clear 10 - - - -
20/08:00am 27.7 SE 5 6 1011.8 - 0.0 - Mostly clear 10 - - - -
20/07:30am 27.2 SSW 3 5 1011.6 - 0.0 - Mostly clear 10 - - - -
20/07:00am 27.3 E 4 6 1011.3 - 0.0 - Mostly clear 10 - - - -
20/06:30am 26.9 W 3 5 1011.1 - 0.0 - Mostly clear 10 - - - -
20/06:00am 25.8 SE 9 10 1010.5 - 0.0 - Cloudy 10 - - - -
20/05:30am 25.9 SSE 6 9 1010.5 - 0.0 - Mostly clear 10 - - - -
20/05:00am 26.3 SSE 6 8 1010.1 - 0.0 - Mostly clear 10 - - - -
20/04:30am 26.6 S 6 8 1009.8 - 0.0 - Mostly clear 10 - - - -
20/04:00am 26.6 S 6 7 1010.0 - 0.0 - Mostly clear 10 - - - -
20/03:30am 26.5 S 5 8 1010.0 - 0.0 - Mostly clear 10 - - - -
20/03:00am 26.5 S 7 10 1010.1 - 0.0 - Cloudy 10 - - - -
20/02:30am 26.5 S 5 7 1010.4 - 0.0 - Mostly clear 10 - - - -
20/02:00am 26.5 S 6 8 1010.5 - 0.0 - Mostly clear 10 - - - -
20/01:30am 26.6 S 6 7 1010.6 - 0.0 - Partly cloudy 10 - - - -
20/01:00am 26.6 S 5 7 1010.8 - 0.0 - Partly cloudy 10 - - - -
20/12:30am 26.9 S 5 7 1011.3 - 0.0 - Partly cloudy 10 - - - -
20/12:00am 27.0 S 5 6 1011.6 - 0.0 - Cloudy 10 - - - -
 
Date/Time
EST
Temp

°C
Wind Pressure Rain
since 9am
mm
Weather Cloud Vis
km
Sea
Height
m
Swell
Dir
 
Speed
knots
Gust
knots
hPa Trend Height
m
Period
s
Dir
19/11:30pm 26.7 S 4 6 1012.0 - 0.0 - Partly cloudy 10 - - - -
19/11:00pm 27.0 S 4 7 1012.0 - 0.0 - Partly cloudy 10 - - - -
19/10:30pm 27.5 SE 7 9 1012.1 - 0.0 - Partly cloudy 10 - - - -
19/10:00pm 27.9 SE 7 9 1011.9 - 0.0 - Mostly cloudy 10 - - - -
19/09:30pm 27.7 ESE 7 8 1011.6 - 0.0 - Partly cloudy 10 - - - -
19/09:00pm 27.9 E 7 8 1011.2 - 0.0 - Cloudy 10 - - - -
19/08:30pm 27.7 ENE 5 6 1010.9 - 0.0 - Partly cloudy 10 - - - -
19/08:00pm 27.3 ENE 4 5 1010.3 - 0.0 - Mostly clear 10 - - - -
19/07:30pm 27.1 NE 4 6 1010.2 - 0.0 - Mostly clear 10 - - - -
19/07:00pm 27.1 NE 4 6 1009.8 - 0.0 - - 10 - - - -
19/06:30pm 27.6 NNE 5 6 1009.6 - 0.0 - - 10 - - - -
19/06:00pm 28.6 NNE 6 8 1009.3 - 0.0 - - 10 - - - -
19/05:30pm 29.1 NNE 6 9 1009.1 - 0.0 - - 10 - - - -
19/05:00pm 29.3 N 6 9 1008.8 - 0.0 - - 10 - - - -
19/04:30pm 29.3 NNE 7 9 1008.7 - 0.0 - - 10 - - - -
19/04:00pm 30.1 NNE 8 10 1008.7 - 0.0 - - 10 - - - -
19/03:30pm 29.9 NNE 8 12 1008.8 - 0.0 - - 10 - - - -
19/03:00pm 29.9 N 9 12 1009.0 F 0.0 Fine Mostly cloudy 30 - - - -
19/02:30pm 30.3 N 9 12 1009.3 - 0.0 - - 10 - - - -
19/02:00pm 30.0 NNE 9 14 1009.7 - 0.0 - - 10 - - - -
19/01:30pm 29.7 N 9 14 1010.2 - 0.0 - Mostly clear 10 - - - -
19/01:00pm 30.6 N 11 15 1010.6 - 0.0 - Mostly clear 10 - - - -
19/12:30pm 30.0 N 9 13 1011.0 - 0.0 - Mostly clear 10 - - - -
19/12:00pm 30.4 NE 9 13 1011.2 - 0.0 - Mostly clear 10 - - - -
19/11:30am 29.8 NE 9 12 1011.8 - 0.0 - Mostly clear 10 - - - -
19/11:00am 30.1 NE 9 15 1012.1 - 0.0 - Mostly clear 10 - - - -
19/10:30am 29.9 NE 8 12 1012.2 - 0.0 - Mostly clear 10 - - - -
19/10:00am 29.7 NE 8 10 1012.4 - 0.0 - Mostly clear 10 - - - -
19/09:30am 30.0 NNE 7 10 1012.3 - 0.0 - Mostly clear 10 - - - -
19/09:00am 29.9 SE 5 8 1012.4 F 0.0 Fine Mostly cloudy 30 - - - -
19/08:30am 28.5 SE 5 8 1012.5 - 0.0 - Mostly clear 10 - - - -
19/08:00am 27.9 SE 6 8 1012.4 - 0.0 - Mostly clear 10 - - - -
19/07:30am 26.0 SE 7 8 1012.3 - 0.0 - Mostly clear 10 - - - -
19/07:00am 24.8 CALM 0 0 1012.3 - 0.0 - Mostly clear 10 - - - -
19/06:30am 24.4 CALM 0 0 1011.8 - 0.0 - Mostly clear 10 - - - -
19/06:00am 23.6 SE 6 6 1011.3 - 0.0 - Cloudy 10 - - - -
19/05:30am 23.5 W 5 5 1010.8 - 0.0 - Mostly clear 10 - - - -
19/05:00am 22.7 WNW 2 4 1010.4 - 0.0 - Mostly clear 10 - - - -
19/04:30am 23.1 W 4 5 1010.4 - 0.0 - - 10 - - - -
19/04:00am 23.0 CALM 0 0 1010.1 - 0.0 - - 10 - - - -
19/03:30am 22.9 NNW 4 5 1010.2 - 0.0 - - 10 - - - -
19/03:00am 23.9 CALM 0 3 1010.3 - 0.0 - - 10 - - - -
19/02:30am 24.1 WSW 1 4 1010.5 - 0.0 - Mostly clear 10 - - - -
19/02:00am 24.1 S 6 8 1011.1 - 0.0 - Mostly clear 10 - - - -
19/01:30am 23.7 N 4 7 1011.7 - 0.0 - Mostly clear 10 - - - -
19/01:00am 23.4 N 4 5 1011.8 - 0.0 - Mostly clear 10 - - - -
19/12:30am 24.7 NNE 3 4 1012.0 - 0.0 - Mostly clear 10 - - - -
19/12:00am 24.3 W 3 4 1012.1 - 0.0 - - 10 - - - -
 
Date/Time
EST
Temp

°C
Wind Pressure Rain
since 9am
mm
Weather Cloud Vis
km
Sea
Height
m
Swell
Dir
 
Speed
knots
Gust
knots
hPa Trend Height
m
Period
s
Dir
18/11:30pm 23.9 CALM 0 4 1011.7 - 0.0 - - 10 - - - -
18/11:00pm 23.8 CALM 0 0 1012.0 - 0.0 - - 10 - - - -
18/10:30pm 24.2 W 3 5 1011.9 - 0.0 - - 10 - - - -
18/10:00pm 24.0 CALM 0 0 1011.8 - 0.0 - Mostly clear 10 - - - -
18/09:30pm 24.0 CALM 0 0 1011.5 - 0.0 - Mostly clear 10 - - - -
18/09:00pm 24.4 CALM 0 3 1011.2 - 0.0 - Mostly clear 10 - - - -
18/08:30pm 25.0 W 3 5 1011.2 - 0.0 - Mostly clear 10 - - - -
18/08:00pm 25.3 CALM 0 0 1011.0 - 0.0 - Mostly clear 10 - - - -
18/07:30pm 25.9 NE 3 4 1010.4 - 0.0 - Mostly clear 10 - - - -
18/07:00pm 26.2 NNE 4 4 1010.2 - 0.0 - Mostly clear 10 - - - -
18/06:30pm 27.5 NNE 5 7 1009.6 - 0.0 - Mostly clear 10 - - - -
18/06:00pm 28.3 N 6 8 1009.0 - 0.0 - Mostly clear 10 - - - -
18/05:30pm 28.8 N 7 9 1008.9 - 0.0 - Mostly clear 10 - - - -
18/05:00pm 28.9 NNE 7 12 1008.9 - 0.0 - - 10 - - - -
18/04:30pm 29.3 N 8 11 1008.8 - 0.0 - Mostly clear 10 - - - -
18/04:00pm 29.6 NNE 9 14 1008.9 - 0.0 - Mostly clear 10 - - - -
18/03:30pm 30.3 NNE 8 14 1009.3 - 0.0 - Mostly clear 10 - - - -
18/03:00pm 29.8 NE 9 15 1009.6 R 0.0 Fine Mostly cloudy 40 - - - -
18/02:30pm 30.2 NNE 9 14 1009.9 - 0.0 - Mostly clear 10 - - - -
18/02:00pm 30.2 NNE 8 11 1010.1 - 0.0 - Mostly clear 10 - - - -
18/01:30pm 30.7 N 7 11 1010.4 - 0.0 - Mostly clear 10 - - - -
18/01:00pm 31.5 N 9 13 1010.8 - 0.0 - Mostly clear 10 - - - -
18/12:30pm 30.7 NNE 8 11 1011.2 - 0.0 - Mostly clear 10 - - - -
18/12:00pm 30.3 NNE 9 12 1011.1 - 0.0 - Mostly clear 10 - - - -
18/11:30am 30.4 NNE 8 15 1011.6 - 0.0 - Mostly clear 10 - - - -
18/11:00am 30.6 NNE 8 13 1011.8 - 0.0 - Mostly clear 10 - - - -
18/10:30am 29.7 NNE 8 11 1012.1 - 0.0 - Mostly clear 10 - - - -
18/10:00am 29.5 N 8 10 1012.1 - 0.0 - Mostly clear 10 - - - -
18/09:30am 29.5 NE 7 11 1012.2 - 0.0 - Mostly clear 10 - - - -
18/09:00am 29.1 NNE 8 10 1012.1 F 0.0 Fine Mostly clear 30 - - - -
18/08:30am 27.8 NE 4 6 1012.3 - 0.0 - Mostly clear 10 - - - -
18/08:00am 28.1 ESE 4 6 1012.2 - 0.0 - Mostly clear 10 - - - -

Other Formats:

Comma delimited format used in spreadsheet applications
http://www.bom.gov.au/fwo/IDQ60701/IDQ60701.94287.axf

JavaScript Object Notation format (JSON) in row-major order
http://www.bom.gov.au/fwo/IDQ60701/IDQ60701.94287.json